Time;durP1;ratioP1;P1;durP2;ratioP2;P2;SDS_P1;SDS_P2;PMS_P1;PMS_P2;Temp;Humidity;BMP_temperature;BMP_pressure;BME280_temperature;BME280_humidity;BME280_pressure;Samples;Min_cycle;Max_cycle;Signal;HPM_P1;HPM_P2
2022/01/05 00:01:59;;;;;;;22.35;3.47;;;4.50;99.90;;;;;;5024933;28;20552;-66
2022/01/05 00:04:25;;;;;;;11.75;2.95;;;4.50;99.90;;;;;;5029392;28;20041;-66
2022/01/05 00:06:51;;;;;;;17.27;2.55;;;4.50;99.90;;;;;;5025888;28;20115;-66
2022/01/05 00:09:16;;;;;;;12.27;3.90;;;4.60;99.90;;;;;;5016084;28;20037;-66
2022/01/05 00:11:42;;;;;;;16.65;3.78;;;4.60;99.90;;;;;;5028124;28;20037;-66
2022/01/05 00:14:07;;;;;;;19.17;2.92;;;4.60;99.90;;;;;;5001795;28;20053;-66
2022/01/05 00:16:33;;;;;;;27.77;4.30;;;4.60;99.90;;;;;;5006883;28;20076;-66
2022/01/05 00:18:58;;;;;;;18.92;3.35;;;4.60;99.90;;;;;;5026355;28;20092;-66
2022/01/05 00:21:24;;;;;;;19.05;3.42;;;4.60;99.90;;;;;;5028074;28;20041;-66
2022/01/05 00:23:49;;;;;;;15.85;2.92;;;4.60;99.90;;;;;;5022683;28;20049;-66
2022/01/05 00:26:15;;;;;;;13.27;3.05;;;4.70;99.90;;;;;;5019601;28;20049;-67
2022/01/05 00:28:41;;;;;;;16.63;3.40;;;4.70;99.90;;;;;;5010363;28;20483;-66
2022/01/05 00:31:07;;;;;;;18.75;3.10;;;4.70;99.90;;;;;;5018363;28;20045;-67
2022/01/05 00:33:32;;;;;;;15.73;2.72;;;4.70;99.90;;;;;;5021235;28;20037;-66
2022/01/05 00:35:57;;;;;;;19.70;3.33;;;4.80;99.90;;;;;;5010124;28;20045;-67
2022/01/05 00:38:23;;;;;;;20.92;4.20;;;4.70;99.90;;;;;;5019681;28;20045;-66
2022/01/05 00:40:49;;;;;;;20.95;3.83;;;4.70;99.90;;;;;;5004589;28;20053;-67
2022/01/05 00:43:14;;;;;;;14.98;2.65;;;4.70;99.90;;;;;;5008054;28;20077;-67
2022/01/05 00:45:40;;;;;;;20.80;3.65;;;4.70;99.90;;;;;;5025870;28;20048;-66
2022/01/05 00:48:05;;;;;;;20.75;3.35;;;4.70;99.90;;;;;;5015282;28;20100;-66
2022/01/05 00:50:31;;;;;;;16.73;4.40;;;4.70;99.90;;;;;;5023046;28;20068;-66
2022/01/05 00:53:00;;;;;;;12.18;3.60;;;4.70;99.90;;;;;;5018096;28;20539;-66
2022/01/05 00:55:27;;;;;;;23.67;3.72;;;4.60;99.90;;;;;;5003211;28;20034;-66
2022/01/05 00:57:53;;;;;;;19.38;4.15;;;4.70;99.90;;;;;;5015883;28;20055;-66
2022/01/05 01:00:18;;;;;;;10.98;3.05;;;4.60;99.90;;;;;;5024973;28;20053;-67
2022/01/05 01:02:44;;;;;;;16.92;3.03;;;4.70;99.90;;;;;;5017215;28;20494;-66
2022/01/05 01:05:10;;;;;;;9.15;3.25;;;4.70;99.90;;;;;;5015685;28;20034;-66
2022/01/05 01:07:35;;;;;;;17.90;4.35;;;4.70;99.90;;;;;;5022101;28;20084;-66
2022/01/05 01:10:01;;;;;;;22.33;2.90;;;4.70;99.90;;;;;;5026636;28;20128;-66
2022/01/05 01:12:26;;;;;;;9.40;3.30;;;4.70;99.90;;;;;;5029030;28;20524;-66
2022/01/05 01:14:52;;;;;;;21.25;3.95;;;4.60;99.90;;;;;;5003018;28;20057;-66
2022/01/05 01:17:17;;;;;;;19.33;3.40;;;4.60;99.90;;;;;;4998595;28;20085;-66
2022/01/05 01:19:43;;;;;;;19.48;4.43;;;4.60;99.90;;;;;;5018229;28;20049;-67
2022/01/05 01:22:09;;;;;;;12.38;4.45;;;4.60;99.90;;;;;;5008292;28;20076;-66
2022/01/05 01:24:34;;;;;;;20.52;4.18;;;4.60;99.90;;;;;;5024495;28;20053;-66
2022/01/05 01:27:00;;;;;;;19.77;4.10;;;4.70;99.90;;;;;;5009283;28;20049;-66
2022/01/05 01:29:26;;;;;;;19.98;3.53;;;4.60;99.90;;;;;;5022376;28;20117;-67
2022/01/05 01:31:51;;;;;;;18.73;2.80;;;4.70;99.90;;;;;;5026677;28;20057;-66
2022/01/05 01:34:17;;;;;;;25.83;3.97;;;4.70;99.90;;;;;;5018525;28;20088;-66
2022/01/05 01:36:43;;;;;;;14.77;3.55;;;4.60;99.90;;;;;;5014554;28;20124;-66
2022/01/05 01:39:08;;;;;;;13.32;3.00;;;4.70;99.90;;;;;;5025054;28;20128;-66
2022/01/05 01:41:34;;;;;;;23.42;5.32;;;4.70;99.90;;;;;;5019891;28;20050;-66
2022/01/05 01:44:00;;;;;;;19.48;3.78;;;4.70;99.90;;;;;;5001602;28;20052;-67
2022/01/05 01:46:26;;;;;;;23.52;4.05;;;4.70;99.90;;;;;;5016357;28;20049;-67
2022/01/05 01:48:51;;;;;;;10.82;3.33;;;4.70;99.90;;;;;;5021813;28;20041;-65
2022/01/05 01:51:18;;;;;;;18.17;3.80;;;4.70;99.90;;;;;;5024518;28;20053;-65
2022/01/05 01:53:44;;;;;;;26.85;3.45;;;4.70;99.90;;;;;;5005207;28;20108;-65
2022/01/05 01:56:11;;;;;;;15.15;3.53;;;4.70;99.90;;;;;;5022935;28;20041;-65
2022/01/05 01:58:37;;;;;;;21.42;3.78;;;4.70;99.90;;;;;;5017773;28;20402;-65
2022/01/05 02:01:03;;;;;;;22.70;5.97;;;4.80;99.90;;;;;;5003842;28;20092;-65
2022/01/05 02:03:28;;;;;;;21.17;4.05;;;4.70;99.90;;;;;;5023635;28;20544;-65
2022/01/05 02:05:54;;;;;;;17.38;4.18;;;4.70;99.90;;;;;;5004071;28;20041;-65
2022/01/05 02:08:20;;;;;;;18.02;3.22;;;4.70;99.90;;;;;;5022228;28;20160;-65
2022/01/05 02:10:46;;;;;;;23.63;3.92;;;4.70;99.90;;;;;;5023405;28;20049;-65
2022/01/05 02:13:12;;;;;;;22.98;4.13;;;4.70;99.90;;;;;;5021420;28;20077;-65
2022/01/05 02:15:41;;;;;;;19.83;3.45;;;4.70;99.90;;;;;;5008192;28;20468;-65
2022/01/05 02:20:32;;;;;;;19.30;4.40;;;4.70;99.90;;;;;;5022408;28;20667;-65
2022/01/05 02:22:58;;;;;;;18.02;3.88;;;4.70;99.90;;;;;;5003287;28;20041;-65
2022/01/05 02:25:25;;;;;;;26.50;5.22;;;4.80;99.90;;;;;;5015542;28;20676;-65
2022/01/05 02:27:52;;;;;;;19.23;4.35;;;4.90;99.90;;;;;;5005795;28;20455;-66
2022/01/05 02:30:21;;;;;;;12.68;2.80;;;4.80;99.90;;;;;;5010819;28;20045;-65
2022/01/05 02:32:47;;;;;;;17.10;3.08;;;4.90;99.90;;;;;;5016546;28;20045;-65
2022/01/05 02:35:13;;;;;;;14.35;3.92;;;4.80;99.90;;;;;;5017834;28;20601;-65
2022/01/05 02:37:41;;;;;;;23.67;4.20;;;4.90;99.90;;;;;;5004330;28;20507;-65
2022/01/05 02:40:12;;;;;;;13.90;2.40;;;4.90;99.90;;;;;;4997961;28;20049;-65
2022/01/05 02:42:38;;;;;;;17.90;3.22;;;4.90;99.90;;;;;;5012392;28;20057;-65
2022/01/05 02:45:04;;;;;;;34.05;3.60;;;4.90;99.90;;;;;;5022210;28;20366;-66
2022/01/05 02:47:30;;;;;;;12.30;3.25;;;5.00;99.90;;;;;;5022279;28;20053;-66
2022/01/05 02:49:59;;;;;;;14.95;2.42;;;5.00;99.90;;;;;;5018719;28;20050;-66
2022/01/05 02:52:25;;;;;;;10.60;2.83;;;5.00;99.90;;;;;;5006415;28;20068;-65
2022/01/05 02:54:51;;;;;;;22.70;3.58;;;5.00;99.90;;;;;;5004188;28;20064;-66
2022/01/05 02:57:16;;;;;;;14.18;2.47;;;5.00;99.90;;;;;;5020326;28;20045;-66
2022/01/05 02:59:42;;;;;;;13.70;2.63;;;5.00;99.90;;;;;;5023094;28;20038;-65
2022/01/05 03:02:08;;;;;;;12.77;2.25;;;5.00;99.90;;;;;;5024597;28;20091;-65
2022/01/05 03:04:33;;;;;;;18.88;3.38;;;5.00;99.90;;;;;;5005474;28;20046;-65
2022/01/05 03:06:59;;;;;;;17.25;3.20;;;4.90;99.90;;;;;;5021397;28;20049;-65
2022/01/05 03:09:25;;;;;;;16.88;3.22;;;5.00;99.90;;;;;;5015324;28;20046;-66
2022/01/05 03:11:52;;;;;;;16.05;2.17;;;5.00;99.90;;;;;;5002106;28;20048;-65
2022/01/05 03:14:18;;;;;;;13.93;2.60;;;5.00;99.90;;;;;;5013990;28;20432;-65
2022/01/05 03:16:44;;;;;;;12.20;2.30;;;5.10;99.90;;;;;;5004203;28;20052;-66
2022/01/05 03:19:09;;;;;;;15.68;2.63;;;5.00;99.90;;;;;;5021108;28;20046;-65
2022/01/05 03:21:35;;;;;;;8.18;2.40;;;4.90;99.90;;;;;;5020122;28;20034;-66
2022/01/05 03:24:01;;;;;;;9.88;1.98;;;4.90;99.90;;;;;;5017072;28;20184;-66
2022/01/05 03:26:26;;;;;;;13.65;2.25;;;4.80;99.90;;;;;;5003598;28;20592;-66
2022/01/05 03:28:52;;;;;;;9.90;2.70;;;4.80;99.90;;;;;;5003546;28;20045;-66
2022/01/05 03:31:18;;;;;;;12.95;2.10;;;4.70;99.90;;;;;;5004046;28;20049;-66
2022/01/05 03:33:43;;;;;;;11.95;2.72;;;4.70;99.90;;;;;;5019815;28;20038;-66
2022/01/05 03:36:10;;;;;;;14.18;2.75;;;4.60;99.90;;;;;;5015572;28;20132;-65
2022/01/05 03:38:35;;;;;;;10.63;1.85;;;4.60;99.90;;;;;;5018514;28;20103;-65
2022/01/05 03:41:01;;;;;;;17.25;3.30;;;4.60;99.90;;;;;;5011506;28;20390;-66
2022/01/05 03:43:27;;;;;;;17.75;3.53;;;4.60;99.90;;;;;;5021354;28;20042;-66
2022/01/05 03:45:52;;;;;;;14.02;2.25;;;4.70;99.90;;;;;;5020935;28;20048;-66
2022/01/05 03:48:20;;;;;;;12.15;2.25;;;4.70;99.90;;;;;;5005703;28;20065;-66
2022/01/05 03:50:46;;;;;;;15.05;2.47;;;4.70;99.90;;;;;;5004552;28;20133;-65
2022/01/05 03:53:12;;;;;;;15.65;2.58;;;4.70;99.90;;;;;;5021578;28;20057;-65
2022/01/05 03:55:40;;;;;;;20.40;2.75;;;4.70;99.90;;;;;;5017294;28;20037;-65
2022/01/05 03:58:06;;;;;;;14.27;2.80;;;4.70;99.90;;;;;;5024521;28;20044;-65
2022/01/05 04:00:34;;;;;;;13.95;2.38;;;4.60;99.90;;;;;;5028928;28;20033;-65
2022/01/05 04:03:00;;;;;;;19.08;3.17;;;4.70;99.90;;;;;;5008599;28;20049;-66
2022/01/05 04:05:28;;;;;;;18.80;3.60;;;4.70;99.90;;;;;;5003905;28;20054;-65
2022/01/05 04:07:53;;;;;;;22.58;4.05;;;4.70;99.90;;;;;;5006428;28;20504;-66
2022/01/05 04:10:19;;;;;;;32.67;6.32;;;4.80;99.90;;;;;;5021625;28;20053;-66
2022/01/05 04:12:45;;;;;;;25.60;5.30;;;4.80;99.90;;;;;;5018210;28;20045;-65
2022/01/05 04:15:11;;;;;;;19.40;4.70;;;4.90;99.90;;;;;;5020697;28;20049;-65
2022/01/05 04:17:36;;;;;;;26.50;5.72;;;4.90;99.90;;;;;;5003565;28;20064;-65
2022/01/05 04:20:03;;;;;;;28.50;6.10;;;4.90;99.90;;;;;;5014824;28;20053;-65
2022/01/05 04:22:29;;;;;;;22.65;3.85;;;4.90;99.90;;;;;;5025206;28;20045;-65
2022/01/05 04:24:54;;;;;;;18.45;3.67;;;4.90;99.90;;;;;;5023253;28;20063;-65
2022/01/05 04:27:20;;;;;;;19.23;3.50;;;4.90;99.90;;;;;;5021645;28;20061;-65
2022/01/05 04:29:45;;;;;;;20.55;4.28;;;4.90;99.90;;;;;;5021175;28;20058;-65
2022/01/05 04:32:11;;;;;;;20.67;3.72;;;4.90;99.90;;;;;;5020790;28;20136;-65
2022/01/05 04:34:37;;;;;;;15.25;3.72;;;4.90;99.90;;;;;;5018674;28;20084;-65
2022/01/05 04:37:03;;;;;;;20.95;5.18;;;4.80;99.90;;;;;;5011016;28;20046;-66
2022/01/05 04:39:29;;;;;;;12.77;3.17;;;4.90;99.90;;;;;;4999211;28;20057;-66
2022/01/05 04:41:54;;;;;;;24.02;3.67;;;4.90;99.90;;;;;;5009636;28;20524;-66
2022/01/05 04:44:20;;;;;;;19.70;4.00;;;4.90;99.90;;;;;;5017277;28;20489;-66
2022/01/05 04:46:45;;;;;;;20.85;4.00;;;5.00;99.90;;;;;;5021504;28;20112;-65
2022/01/05 04:49:11;;;;;;;27.88;4.03;;;5.00;99.90;;;;;;5020586;28;20060;-65
2022/01/05 04:51:37;;;;;;;19.25;3.50;;;5.00;99.90;;;;;;5019367;28;20092;-65
2022/01/05 04:54:02;;;;;;;10.88;2.83;;;5.00;99.90;;;;;;5003133;28;20041;-66
2022/01/05 04:56:28;;;;;;;14.50;3.55;;;5.00;99.90;;;;;;5018673;28;20038;-65
2022/01/05 04:58:56;;;;;;;20.00;4.40;;;4.90;99.90;;;;;;5019181;28;20406;-65
2022/01/05 05:01:22;;;;;;;22.42;4.93;;;4.90;99.90;;;;;;5009133;28;20053;-65
2022/01/05 05:03:48;;;;;;;18.95;4.13;;;4.90;99.90;;;;;;5006852;28;20040;-65
2022/01/05 05:06:13;;;;;;;20.10;4.30;;;5.00;99.90;;;;;;5015799;28;20058;-65
2022/01/05 05:08:39;;;;;;;18.83;3.88;;;5.00;99.90;;;;;;5024874;28;20045;-65
2022/01/05 05:11:04;;;;;;;25.75;5.38;;;5.00;99.90;;;;;;5025066;28;20081;-65
2022/01/05 05:13:30;;;;;;;18.58;3.90;;;5.00;99.90;;;;;;5026936;28;20132;-65
2022/01/05 05:15:55;;;;;;;24.25;5.03;;;5.00;99.90;;;;;;4999971;28;20070;-65
2022/01/05 05:18:21;;;;;;;23.35;4.72;;;5.00;99.90;;;;;;5023019;28;20045;-64
2022/01/05 05:20:46;;;;;;;27.63;5.57;;;5.00;99.90;;;;;;5022603;28;20060;-64
2022/01/05 05:23:12;;;;;;;18.85;3.95;;;5.00;99.90;;;;;;5027210;28;20050;-64
2022/01/05 05:25:37;;;;;;;24.30;5.15;;;5.00;99.90;;;;;;5004041;28;20057;-64
2022/01/05 05:28:03;;;;;;;26.33;5.90;;;5.00;99.90;;;;;;5018487;28;20444;-64
2022/01/05 05:30:29;;;;;;;36.28;6.32;;;5.00;99.90;;;;;;5007570;28;20481;-64
2022/01/05 05:32:57;;;;;;;34.05;5.63;;;5.00;99.90;;;;;;5021182;28;20045;-64
2022/01/05 05:35:23;;;;;;;29.48;5.35;;;5.10;99.90;;;;;;5017353;28;20072;-64
2022/01/05 05:37:49;;;;;;;30.23;6.15;;;5.00;99.90;;;;;;5017720;28;20175;-64
2022/01/05 05:40:15;;;;;;;34.25;5.53;;;5.00;99.90;;;;;;5022636;28;20117;-64
2022/01/05 05:42:40;;;;;;;31.38;4.72;;;5.10;99.90;;;;;;5007262;28;20054;-64
2022/01/05 05:45:07;;;;;;;27.33;4.13;;;5.10;99.90;;;;;;5017699;28;20497;-64
2022/01/05 05:47:33;;;;;;;29.20;5.13;;;5.10;99.90;;;;;;5004745;28;20073;-64
2022/01/05 05:49:59;;;;;;;24.45;3.75;;;5.20;99.90;;;;;;5017568;28;20521;-65
2022/01/05 05:52:25;;;;;;;20.35;4.47;;;5.20;99.90;;;;;;5011861;28;20076;-65
2022/01/05 05:54:52;;;;;;;28.65;4.70;;;5.30;99.90;;;;;;5001870;28;20505;-65
2022/01/05 05:57:17;;;;;;;30.50;5.43;;;5.30;99.90;;;;;;5015931;28;20088;-65
2022/01/05 05:59:43;;;;;;;33.90;5.90;;;5.30;99.90;;;;;;5013852;28;20069;-65
2022/01/05 06:02:09;;;;;;;21.65;3.75;;;5.40;99.90;;;;;;5023771;28;20110;-64
2022/01/05 06:04:34;;;;;;;20.15;4.38;;;5.30;99.90;;;;;;5026279;28;20394;-64
2022/01/05 06:07:00;;;;;;;20.73;3.25;;;5.30;99.90;;;;;;5014978;28;20050;-65
2022/01/05 06:09:26;;;;;;;18.33;3.10;;;5.20;99.90;;;;;;5016988;28;20588;-65
2022/01/05 06:11:51;;;;;;;18.42;2.50;;;5.20;99.90;;;;;;5021717;28;20053;-65
2022/01/05 06:14:17;;;;;;;19.50;3.47;;;5.10;99.90;;;;;;5022192;28;20053;-65
2022/01/05 06:16:43;;;;;;;23.75;4.10;;;5.00;99.90;;;;;;5022809;28;20420;-65
2022/01/05 06:19:09;;;;;;;24.48;4.20;;;5.00;99.90;;;;;;5003215;28;20053;-65
2022/01/05 06:21:35;;;;;;;22.30;2.97;;;5.00;99.90;;;;;;5020666;28;20046;-65
2022/01/05 06:24:01;;;;;;;14.00;3.42;;;4.90;99.90;;;;;;5016672;28;20144;-65
2022/01/05 06:26:26;;;;;;;21.45;3.53;;;4.90;99.90;;;;;;5006781;28;20079;-65
2022/01/05 06:28:52;;;;;;;12.20;2.40;;;4.90;99.90;;;;;;5002757;28;20077;-65
2022/01/05 06:31:18;;;;;;;17.17;2.63;;;4.90;99.90;;;;;;5008405;28;20550;-65
2022/01/05 06:33:43;;;;;;;22.42;3.17;;;4.90;99.90;;;;;;5019434;28;20046;-65
2022/01/05 06:36:09;;;;;;;22.50;3.47;;;4.90;99.90;;;;;;5015344;28;20050;-66
2022/01/05 06:38:34;;;;;;;27.38;4.60;;;5.00;99.90;;;;;;5002209;28;20056;-66
2022/01/05 06:41:00;;;;;;;19.05;3.67;;;5.10;99.90;;;;;;5015881;28;20034;-65
2022/01/05 06:43:25;;;;;;;18.67;3.30;;;5.20;99.90;;;;;;5012022;28;20513;-65
2022/01/05 06:45:51;;;;;;;17.55;3.42;;;5.20;99.90;;;;;;5015471;28;20052;-66
2022/01/05 06:48:17;;;;;;;24.33;3.78;;;5.30;99.90;;;;;;5021201;28;20044;-66
2022/01/05 06:50:42;;;;;;;14.90;3.08;;;5.40;99.90;;;;;;5003934;28;20049;-66
2022/01/05 06:53:08;;;;;;;27.83;4.30;;;5.40;99.90;;;;;;5017096;28;20049;-67
2022/01/05 06:55:34;;;;;;;23.10;3.92;;;5.40;99.90;;;;;;4999246;28;20050;-67
2022/01/05 06:57:59;;;;;;;14.25;3.50;;;5.40;99.90;;;;;;5015603;28;20104;-67
2022/01/05 07:00:26;;;;;;;11.90;3.22;;;5.40;99.90;;;;;;5012018;28;20053;-67
2022/01/05 07:02:52;;;;;;;21.40;4.07;;;5.50;99.90;;;;;;5001759;28;20049;-67
2022/01/05 07:05:18;;;;;;;11.18;3.22;;;5.50;99.90;;;;;;5003248;28;20092;-66
2022/01/05 07:07:44;;;;;;;19.30;3.38;;;5.50;99.90;;;;;;5024252;28;20076;-67
2022/01/05 07:10:11;;;;;;;18.30;3.53;;;5.50;99.90;;;;;;5020294;28;21728;-67
2022/01/05 07:12:37;;;;;;;23.42;4.55;;;5.50;99.90;;;;;;5008038;28;20077;-67
2022/01/05 07:15:04;;;;;;;15.23;2.63;;;5.50;99.90;;;;;;4998491;28;20104;-66
2022/01/05 07:17:30;;;;;;;21.33;3.30;;;5.50;99.90;;;;;;5016321;28;20045;-66
2022/01/05 07:19:56;;;;;;;27.73;5.45;;;5.50;99.90;;;;;;5013249;28;20040;-65
2022/01/05 07:22:21;;;;;;;31.75;4.20;;;5.60;99.90;;;;;;5004327;28;20041;-64
2022/01/05 07:24:47;;;;;;;33.67;5.20;;;5.60;99.90;;;;;;5026198;28;20100;-65
2022/01/05 07:27:13;;;;;;;32.58;7.10;;;5.60;99.90;;;;;;5023133;28;20116;-65
2022/01/05 07:29:38;;;;;;;26.75;5.07;;;5.60;99.90;;;;;;5003898;28;20342;-65
2022/01/05 07:32:04;;;;;;;16.05;3.25;;;5.70;99.90;;;;;;5003581;28;20316;-65
2022/01/05 07:34:30;;;;;;;13.10;2.55;;;5.60;99.90;;;;;;5023594;28;20040;-65
2022/01/05 07:36:55;;;;;;;14.85;2.05;;;5.60;99.90;;;;;;5018833;28;20093;-65
2022/01/05 07:39:21;;;;;;;11.23;2.35;;;5.60;99.90;;;;;;5022457;28;20045;-65
2022/01/05 07:41:47;;;;;;;15.30;3.17;;;5.60;99.90;;;;;;5025115;28;20045;-65
2022/01/05 07:44:12;;;;;;;13.02;3.17;;;5.60;99.90;;;;;;5003996;28;20057;-65
2022/01/05 07:46:38;;;;;;;26.77;4.28;;;5.60;99.90;;;;;;5020802;28;20041;-65
2022/01/05 07:49:07;;;;;;;19.70;4.72;;;5.60;99.90;;;;;;5009733;28;20057;-65
2022/01/05 07:51:33;;;;;;;27.75;4.65;;;5.70;99.90;;;;;;5028877;28;20488;-65
2022/01/05 07:53:59;;;;;;;33.38;5.38;;;5.80;99.90;;;;;;5018337;28;20060;-66
2022/01/05 07:56:25;;;;;;;19.25;3.50;;;5.80;99.90;;;;;;5024565;28;20459;-66
2022/01/05 07:58:50;;;;;;;23.35;4.18;;;5.90;99.90;;;;;;5022895;28;20180;-67
2022/01/05 08:01:18;;;;;;;15.15;3.38;;;5.90;99.90;;;;;;5022735;28;20049;-67
2022/01/05 08:03:45;;;;;;;20.13;3.28;;;5.80;99.90;;;;;;5006921;28;20403;-67
2022/01/05 08:06:11;;;;;;;12.20;2.47;;;5.80;99.90;;;;;;5015677;28;20107;-67
2022/01/05 08:08:36;;;;;;;8.02;1.80;;;5.80;99.90;;;;;;5009765;28;20098;-67
2022/01/05 08:11:02;;;;;;;10.82;2.00;;;5.70;99.90;;;;;;5010739;28;20041;-67
2022/01/05 08:13:28;;;;;;;7.22;1.73;;;5.60;99.90;;;;;;5028884;28;20037;-67
2022/01/05 08:15:54;;;;;;;16.27;2.75;;;5.60;99.90;;;;;;5009097;28;20045;-67
2022/01/05 08:18:20;;;;;;;21.73;3.25;;;5.60;99.90;;;;;;5017365;28;20084;-67
2022/01/05 08:20:46;;;;;;;15.07;2.42;;;5.60;99.90;;;;;;5004154;28;20045;-67
2022/01/05 08:23:20;;;;;;;19.42;3.75;;;5.60;99.90;;;;;;5003964;28;20060;-67
2022/01/05 08:25:46;;;;;;;;;;;5.60;99.90;;;;;;5020165;28;20147;-68
2022/01/05 08:28:12;;;;;;;22.23;3.92;;;5.70;99.90;;;;;;5022064;28;20428;-68
2022/01/05 08:30:38;;;;;;;23.05;4.03;;;5.80;99.90;;;;;;5002600;28;20140;-68
2022/01/05 08:33:04;;;;;;;19.20;3.47;;;5.80;99.90;;;;;;5015738;28;20088;-68
2022/01/05 08:35:31;;;;;;;21.45;4.97;;;5.90;99.90;;;;;;5007633;28;20053;-68
2022/01/05 08:37:57;;;;;;;31.27;6.03;;;5.90;99.90;;;;;;5028555;28;20037;-68
2022/01/05 08:40:25;;;;;;;16.05;2.92;;;6.00;99.90;;;;;;5022608;28;20545;-69
2022/01/05 08:42:51;;;;;;;17.48;4.88;;;6.10;99.90;;;;;;5004128;28;20438;-70
2022/01/05 08:45:18;;;;;;;27.67;4.80;;;6.00;99.90;;;;;;4997722;28;20095;-68
2022/01/05 08:47:47;;;;;;;24.48;4.60;;;6.10;99.90;;;;;;5003145;28;20053;-68
2022/01/05 08:50:14;;;;;;;27.65;5.57;;;6.10;99.90;;;;;;5022359;28;20053;-68
2022/01/05 08:52:40;;;;;;;33.67;6.35;;;6.20;99.90;;;;;;4998180;28;20049;-68
2022/01/05 08:55:07;;;;;;;35.22;6.20;;;6.20;99.90;;;;;;5007916;28;20055;-68
2022/01/05 08:57:33;;;;;;;31.75;6.50;;;6.20;99.90;;;;;;5001362;28;20050;-69
2022/01/05 08:59:58;;;;;;;26.75;6.25;;;6.30;99.90;;;;;;5015995;28;20585;-67
2022/01/05 09:02:24;;;;;;;35.33;6.82;;;6.30;99.90;;;;;;5015018;28;20046;-68
2022/01/05 09:04:51;;;;;;;39.60;7.45;;;6.30;99.90;;;;;;5020671;28;20073;-68
2022/01/05 09:07:18;;;;;;;29.08;5.10;;;6.30;99.90;;;;;;5025569;28;20049;-67
2022/01/05 09:09:44;;;;;;;46.95;7.03;;;6.40;99.90;;;;;;5027175;28;20042;-67
2022/01/05 09:12:10;;;;;;;40.22;9.80;;;6.40;99.90;;;;;;4999245;28;20136;-67
2022/01/05 09:14:36;;;;;;;27.35;5.38;;;6.40;99.90;;;;;;5000739;28;20052;-68
2022/01/05 09:17:02;;;;;;;33.10;6.32;;;6.50;99.90;;;;;;5021236;28;20060;-68
2022/01/05 09:19:29;;;;;;;26.83;4.78;;;6.50;99.90;;;;;;5005619;28;20058;-68
2022/01/05 09:21:55;;;;;;;32.53;5.13;;;6.50;99.90;;;;;;5006029;28;20143;-68
2022/01/05 09:24:21;;;;;;;35.63;6.50;;;6.50;99.90;;;;;;5006560;28;20741;-68
2022/01/05 09:26:46;;;;;;;26.98;6.18;;;6.50;99.90;;;;;;5029191;28;20045;-69
2022/01/05 09:29:12;;;;;;;32.53;6.68;;;6.60;99.90;;;;;;5015393;28;20041;-68
2022/01/05 09:31:37;;;;;;;32.47;5.70;;;6.60;99.90;;;;;;5014074;28;20033;-68
2022/01/05 09:34:03;;;;;;;24.23;5.43;;;6.60;99.90;;;;;;5000293;28;20503;-68
2022/01/05 09:36:36;;;;;;;39.42;6.82;;;6.60;99.90;;;;;;5028314;28;20041;-67
2022/01/05 09:41:57;;;;;;;29.42;4.32;;;6.70;99.90;;;;;;5016813;28;20707;-68
2022/01/05 09:44:29;;;;;;;18.77;4.82;;;6.70;99.90;;;;;;5025644;28;20045;-68
2022/01/05 09:47:08;;;;;;;17.70;4.43;;;6.70;99.90;;;;;;5000720;28;20054;-68
2022/01/05 09:49:36;;;;;;;22.02;4.55;;;6.70;99.90;;;;;;5014767;28;20041;-68
2022/01/05 09:52:06;;;;;;;24.10;4.25;;;6.70;99.90;;;;;;5005838;28;20378;-68
2022/01/05 09:54:38;;;;;;;16.92;4.03;;;6.70;99.90;;;;;;5017289;28;20069;-68
2022/01/05 09:57:05;;;;;;;28.55;4.13;;;6.70;99.90;;;;;;5016384;28;20047;-68
2022/01/05 09:59:34;;;;;;;22.10;4.07;;;6.80;99.90;;;;;;4997200;28;20132;-68
2022/01/05 10:02:00;;;;;;;21.90;3.67;;;6.80;99.90;;;;;;5012494;28;20721;-68
2022/01/05 10:04:26;;;;;;;28.50;6.35;;;6.80;99.90;;;;;;5026177;28;20076;-67
2022/01/05 10:06:51;;;;;;;27.85;6.68;;;6.80;99.90;;;;;;5014048;28;20073;-68
2022/01/05 10:09:17;;;;;;;19.60;3.58;;;6.80;99.90;;;;;;5013716;28;20523;-68
2022/01/05 10:11:43;;;;;;;25.17;3.85;;;6.80;99.90;;;;;;5023592;28;20520;-68
2022/01/05 10:14:12;;;;;;;30.77;6.15;;;6.80;99.90;;;;;;5019507;28;20117;-68
2022/01/05 10:16:38;;;;;;;39.05;4.88;;;6.80;99.90;;;;;;5019346;28;20041;-67
2022/01/05 10:19:05;;;;;;;27.38;5.88;;;6.90;99.90;;;;;;5011717;28;20077;-68
2022/01/05 10:21:36;;;;;;;29.10;4.45;;;6.90;99.90;;;;;;5000901;28;20037;-68
2022/01/05 10:24:03;;;;;;;19.70;4.25;;;6.80;99.90;;;;;;5015120;28;20091;-68
2022/01/05 10:26:38;;;;;;;13.23;4.53;;;7.00;99.90;;;;;;5017994;28;20038;-68
2022/01/05 10:29:14;;;;;;;13.07;2.28;;;7.00;99.90;;;;;;4986637;28;20107;-68
2022/01/05 10:31:41;;;;;;;13.90;3.67;;;7.00;99.90;;;;;;4985952;28;20100;-67
2022/01/05 10:34:16;;;;;;;6.45;2.00;;;7.10;99.90;;;;;;4990228;28;20046;-68
2022/01/05 10:36:55;;;;;;;12.27;2.80;;;7.00;99.90;;;;;;4977553;28;20129;-68
2022/01/05 10:39:29;;;;;;;14.30;2.25;;;7.10;99.90;;;;;;4995265;28;20064;-67
2022/01/05 10:41:54;;;;;;;22.55;2.63;;;7.10;99.90;;;;;;4980892;28;20088;-68
2022/01/05 10:44:22;;;;;;;14.85;2.88;;;7.10;99.90;;;;;;5002303;28;20046;-67
2022/01/05 10:46:56;;;;;;;20.70;4.45;;;7.10;99.90;;;;;;5005062;28;20081;-70
2022/01/05 10:49:32;;;;;;;24.50;4.20;;;7.10;99.90;;;;;;4980265;28;20088;-68
2022/01/05 10:52:34;;;;;;;28.13;4.50;;;7.20;99.90;;;;;;4985803;28;20285;-68
2022/01/05 10:55:10;;;;;;;23.45;4.90;;;7.20;99.90;;;;;;5001455;28;20054;-67
2022/01/05 10:57:36;;;;;;;30.40;5.55;;;7.30;99.90;;;;;;4979675;28;20157;-67
2022/01/05 11:00:04;;;;;;;21.83;4.90;;;7.40;99.90;;;;;;5004116;28;20801;-68
2022/01/05 11:02:32;;;;;;;26.58;4.95;;;7.50;99.90;;;;;;4982393;28;20140;-68
2022/01/05 11:05:08;;;;;;;32.05;4.85;;;7.50;99.90;;;;;;4979101;28;20061;-68
2022/01/05 11:07:37;;;;;;;22.55;3.90;;;7.50;99.90;;;;;;4997959;28;20522;-68
2022/01/05 11:10:11;;;;;;;23.90;3.72;;;7.40;99.90;;;;;;5003390;28;20124;-68
2022/01/05 11:12:41;;;;;;;9.75;1.75;;;7.30;99.90;;;;;;4982573;28;20498;-67
2022/01/05 11:15:16;;;;;;;20.13;3.97;;;7.00;99.90;;;;;;5007939;28;20073;-67
2022/01/05 11:18:21;;;;;;;10.10;2.38;;;6.90;99.90;;;;;;4999246;28;20041;-67
2022/01/05 11:20:57;;;;;;;15.05;2.95;;;6.80;99.90;;;;;;4996625;28;20050;-67
2022/01/05 11:23:24;;;;;;;19.35;2.83;;;6.80;99.90;;;;;;4990162;28;20108;-67
2022/01/05 11:25:51;;;;;;;19.02;3.65;;;6.80;99.90;;;;;;5004502;28;20049;-67
2022/01/05 11:28:19;;;;;;;20.10;4.50;;;6.80;99.90;;;;;;5014656;28;20057;-67
2022/01/05 11:30:46;;;;;;;19.70;4.10;;;6.90;99.90;;;;;;5000099;28;20052;-67
2022/01/05 11:33:12;;;;;;;22.40;4.55;;;7.00;99.90;;;;;;5025316;28;20107;-67
2022/01/05 11:35:39;;;;;;;21.05;5.15;;;7.10;99.90;;;;;;4997375;28;20069;-67
2022/01/05 11:38:06;;;;;;;31.20;4.70;;;7.20;99.90;;;;;;5016729;28;20057;-67
2022/01/05 11:40:33;;;;;;;24.65;4.07;;;7.30;99.90;;;;;;5021229;28;20133;-67
2022/01/05 11:43:02;;;;;;;27.15;4.80;;;7.50;99.90;;;;;;5006488;28;20056;-67
2022/01/05 11:45:45;;;;;;;23.27;4.82;;;7.50;99.90;;;;;;5006689;28;20121;-67
2022/01/05 11:48:26;;;;;;;24.67;3.70;;;7.70;99.90;;;;;;5005425;28;20108;-67
2022/01/05 11:50:56;;;;;;;18.70;3.67;;;7.90;99.90;;;;;;5007165;28;20041;-67
2022/01/05 11:53:40;;;;;;;27.83;5.30;;;8.20;99.90;;;;;;5014524;28;20050;-67
2022/01/05 11:56:11;;;;;;;28.48;5.55;;;8.20;99.90;;;;;;5027827;28;20045;-67
2022/01/05 11:58:58;;;;;;;28.83;4.97;;;8.10;99.90;;;;;;5024345;28;20049;-67
2022/01/05 12:01:30;;;;;;;31.20;5.82;;;8.10;99.90;;;;;;5009397;28;20053;-67
2022/01/05 12:03:59;;;;;;;38.20;7.28;;;8.00;99.90;;;;;;5021595;28;20047;-67
2022/01/05 12:06:34;;;;;;;40.92;5.65;;;7.90;99.90;;;;;;5020743;28;20041;-66
2022/01/05 12:09:03;;;;;;;26.85;5.10;;;7.70;99.90;;;;;;5026691;28;20052;-66
2022/01/05 12:11:42;;;;;;;22.67;4.63;;;7.50;99.90;;;;;;5019798;28;20559;-66
2022/01/05 12:14:31;;;;;;;18.30;3.75;;;7.40;99.90;;;;;;5018896;28;20045;-66
2022/01/05 12:16:59;;;;;;;17.90;3.25;;;7.30;99.90;;;;;;5024601;28;20056;-66
2022/01/05 12:19:45;;;;;;;28.00;4.13;;;7.50;99.90;;;;;;5025334;28;20076;-66
2022/01/05 12:22:23;;;;;;;14.57;3.08;;;7.70;99.90;;;;;;4985577;28;20144;-66
2022/01/05 12:25:07;;;;;;;15.88;3.35;;;7.80;99.90;;;;;;5018717;28;20046;-66
2022/01/05 12:27:51;;;;;;;15.38;4.10;;;7.90;99.90;;;;;;4996366;28;20493;-67
2022/01/05 12:30:17;;;;;;;24.95;5.60;;;8.10;99.90;;;;;;5015296;28;20065;-67
2022/01/05 12:32:44;;;;;;;20.13;4.78;;;8.20;99.90;;;;;;5020463;28;20437;-67
2022/01/05 12:35:18;;;;;;;18.98;3.63;;;8.30;99.90;;;;;;5021269;28;20076;-67
2022/01/05 12:37:52;;;;;;;38.00;6.00;;;8.40;99.90;;;;;;5026746;28;20061;-67
2022/01/05 12:40:42;;;;;;;19.40;4.22;;;8.30;99.90;;;;;;5027628;28;20045;-67
2022/01/05 12:43:08;;;;;;;27.45;5.90;;;8.40;99.90;;;;;;5018798;28;20393;-67
2022/01/05 12:45:53;;;;;;;29.98;5.60;;;8.40;99.90;;;;;;5014875;28;20052;-67
2022/01/05 12:48:31;;;;;;;30.48;6.97;;;8.30;99.90;;;;;;4993131;28;20422;-67
2022/01/05 12:51:17;;;;;;;28.30;6.05;;;8.20;99.90;;;;;;5024528;28;20192;-67
2022/01/05 12:54:05;;;;;;;36.17;6.88;;;8.30;99.90;;;;;;5029669;28;20392;-67
2022/01/05 12:56:52;;;;;;;33.42;7.38;;;8.30;99.90;;;;;;5022226;28;20053;-67